createdAt,value
2022-08-24T00:01:05.473Z,98267.06
2022-08-24T00:03:11.923Z,98266.72
2022-08-24T00:05:15.244Z,98265.69
2022-08-24T00:07:27.691Z,98268.31
2022-08-24T00:09:31.943Z,98266.97
2022-08-24T00:11:34.966Z,98263.66
2022-08-24T00:13:39.279Z,98265.78
2022-08-24T00:15:46.592Z,98266.91
2022-08-24T00:17:50.961Z,98264.56
2022-08-24T00:19:54.451Z,98263.91
2022-08-24T00:21:57.639Z,98266.56
2022-08-24T00:24:03.141Z,98265.75
2022-08-24T00:26:07.144Z,98261.56
2022-08-24T00:28:10.478Z,98271.50
2022-08-24T00:30:16.478Z,98264.00
2022-08-24T00:32:19.840Z,98261.53
2022-08-24T00:34:25.570Z,98269.78
2022-08-24T00:36:28.955Z,98266.44
2022-08-24T00:38:31.970Z,98271.22
2022-08-24T00:40:38.099Z,98270.69
2022-08-24T00:42:41.882Z,98273.34
2022-08-24T00:44:44.830Z,98271.00
2022-08-24T00:46:51.479Z,98267.50
2022-08-24T00:49:00.621Z,98268.66
2022-08-24T00:51:07.296Z,98266.16
2022-08-24T00:53:13.562Z,98267.28
2022-08-24T00:55:20.201Z,98271.25
2022-08-24T00:57:27.191Z,98268.59
2022-08-24T00:59:34.257Z,98268.91
2022-08-24T01:01:37.415Z,98268.19
2022-08-24T01:03:42.633Z,98267.50
2022-08-24T01:05:46.972Z,98274.06
2022-08-24T01:07:52.708Z,98275.75
2022-08-24T01:10:03.780Z,98266.59
2022-08-24T01:12:07.238Z,98274.97
2022-08-24T01:14:10.232Z,98280.56
2022-08-24T01:16:13.457Z,98271.28
2022-08-24T01:18:37.404Z,98269.75
2022-08-24T01:20:40.465Z,98271.88
2022-08-24T01:22:54.053Z,98266.06
2022-08-24T01:24:59.838Z,98282.09
2022-08-24T01:27:03.160Z,98282.38
2022-08-24T01:29:11.702Z,98281.69
2022-08-24T01:31:16.699Z,98282.84
2022-08-24T01:33:24.386Z,98276.84
2022-08-24T01:35:27.831Z,98278.00
2022-08-24T01:37:32.842Z,98265.91
2022-08-24T01:39:37.866Z,98274.13
2022-08-24T01:41:42.438Z,98276.91
2022-08-24T01:43:47.316Z,98271.13
2022-08-24T01:45:50.354Z,98272.22
2022-08-24T01:47:53.398Z,98292.53
2022-08-24T01:49:56.455Z,98273.19
2022-08-24T01:51:59.807Z,98282.13
2022-08-24T01:54:03.692Z,98291.00
2022-08-24T01:56:07.906Z,98285.34
2022-08-24T01:58:13.471Z,98286.31
2022-08-24T02:00:18.410Z,98294.53
2022-08-24T02:02:26.717Z,98286.25
2022-08-24T02:04:29.786Z,98286.38
2022-08-24T02:06:33.394Z,98283.06
2022-08-24T02:08:36.473Z,98290.28
2022-08-24T02:10:39.399Z,98287.66
2022-08-24T02:12:43.646Z,98288.94
2022-08-24T02:14:48.325Z,98293.50
2022-08-24T02:16:51.369Z,98292.00
2022-08-24T02:19:01.748Z,98294.06
2022-08-24T02:21:04.856Z,98291.72
2022-08-24T02:23:08.810Z,98291.19
2022-08-24T02:25:11.833Z,98300.06
2022-08-24T02:27:17.449Z,98294.94
2022-08-24T02:29:20.725Z,98295.22
2022-08-24T02:31:25.171Z,98304.00
2022-08-24T02:33:28.263Z,98295.38
2022-08-24T02:35:31.299Z,98305.25
2022-08-24T02:37:34.586Z,98311.63
2022-08-24T02:39:44.554Z,98298.63
2022-08-24T02:41:52.787Z,98293.47
2022-08-24T02:43:57.012Z,98298.91
2022-08-24T02:46:00.352Z,98293.63
2022-08-24T02:48:05.513Z,98293.78
2022-08-24T02:50:10.368Z,98281.53
2022-08-24T02:52:13.299Z,98291.41
2022-08-24T02:54:18.407Z,98295.16
2022-08-24T02:56:26.961Z,98292.97
2022-08-24T02:58:30.244Z,98291.44
2022-08-24T03:00:33.616Z,98294.34
2022-08-24T03:02:37.298Z,98284.66
2022-08-24T03:04:41.756Z,98289.22
2022-08-24T03:06:45.005Z,98290.34
2022-08-24T03:08:53.302Z,98287.88
2022-08-24T03:11:00.416Z,98293.28
2022-08-24T03:13:03.598Z,98289.94
2022-08-24T03:15:10.437Z,98293.72
2022-08-24T03:17:13.753Z,98293.00
2022-08-24T03:19:15.850Z,98281.91
2022-08-24T03:21:21.923Z,98282.88
2022-08-24T03:23:26.152Z,98288.31
2022-08-24T03:25:29.639Z,98284.97
2022-08-24T03:27:32.903Z,98280.69
2022-08-24T03:29:36.600Z,98281.81
2022-08-24T03:31:39.713Z,98280.13
2022-08-24T03:33:43.104Z,98276.81
2022-08-24T03:35:46.642Z,98285.97
2022-08-24T03:37:53.900Z,98277.38
2022-08-24T03:39:56.871Z,98274.88
2022-08-24T03:41:59.936Z,98280.56
2022-08-24T03:44:03.347Z,98278.22
2022-08-24T03:46:09.548Z,98285.44
2022-08-24T03:48:14.304Z,98276.28
2022-08-24T03:50:18.216Z,98282.78
2022-08-24T03:52:21.906Z,98272.69
2022-08-24T03:54:26.791Z,98287.50
2022-08-24T03:56:32.050Z,98277.94
2022-08-24T03:58:36.193Z,98288.50
2022-08-24T04:00:42.384Z,98278.09
2022-08-24T04:02:48.138Z,98280.00
2022-08-24T04:04:55.391Z,98281.16
2022-08-24T04:06:58.438Z,98283.78
2022-08-24T04:09:03.165Z,98287.53
2022-08-24T04:11:13.510Z,98285.97
2022-08-24T04:13:19.132Z,98290.84
2022-08-24T04:15:24.413Z,98298.22
2022-08-24T04:17:27.754Z,98291.53
2022-08-24T04:19:30.791Z,98293.34
2022-08-24T04:21:36.425Z,98291.69
2022-08-24T04:23:47.708Z,98295.13
2022-08-24T04:25:52.255Z,98294.31
2022-08-24T04:27:56.799Z,98292.63
2022-08-24T04:30:00.227Z,98293.34
2022-08-24T04:32:08.413Z,98289.03
2022-08-24T04:34:12.670Z,98287.38
2022-08-24T04:36:15.617Z,98291.81
2022-08-24T04:38:20.735Z,98299.03
2022-08-24T04:40:40.642Z,98301.41
2022-08-24T04:42:44.720Z,98306.41
2022-08-24T04:44:49.095Z,98312.34
2022-08-24T04:46:52.120Z,98307.06
2022-08-24T04:48:56.203Z,98308.16
2022-08-24T04:51:02.859Z,98313.31
2022-08-24T04:53:07.960Z,98316.66
2022-08-24T04:55:11.049Z,98319.00
2022-08-24T04:57:17.972Z,98316.25
2022-08-24T04:59:22.116Z,98326.06
2022-08-24T05:01:29.195Z,98316.06
2022-08-24T05:03:33.116Z,98323.84
2022-08-24T05:05:36.557Z,98319.28
2022-08-24T05:07:39.768Z,98321.38
2022-08-24T05:09:42.776Z,98328.00
2022-08-24T05:11:49.903Z,98329.97
2022-08-24T05:13:58.189Z,98331.09
2022-08-24T05:16:01.582Z,98343.88
2022-08-24T05:18:07.616Z,98339.81
2022-08-24T05:20:12.395Z,98345.91
2022-08-24T05:22:15.703Z,98350.16
2022-08-24T05:24:23.305Z,98353.56
2022-08-24T05:26:28.610Z,98350.88
2022-08-24T05:28:31.790Z,98338.56
2022-08-24T05:30:36.504Z,98352.38
2022-08-24T05:32:42.352Z,98347.94
2022-08-24T05:34:46.724Z,98353.38
2022-08-24T05:36:49.956Z,98355.22
2022-08-24T05:39:11.366Z,98359.25
2022-08-24T05:41:16.731Z,98358.25
2022-08-24T05:43:21.459Z,98362.31
2022-08-24T05:45:24.481Z,98361.41
2022-08-24T05:47:28.912Z,98368.81
2022-08-24T05:49:40.786Z,98364.44
2022-08-24T05:51:46.165Z,98365.22
2022-08-24T05:53:49.387Z,98367.94
2022-08-24T05:55:52.896Z,98368.84
2022-08-24T05:57:56.747Z,98369.25
2022-08-24T06:00:01.495Z,98384.59
2022-08-24T06:02:04.799Z,98389.44
2022-08-24T06:04:08.508Z,98381.53
2022-08-24T06:06:13.458Z,98381.56
2022-08-24T06:08:18.091Z,98392.03
2022-08-24T06:10:36.319Z,98393.38
2022-08-24T06:12:40.813Z,98390.03
2022-08-24T06:14:47.450Z,98391.00
2022-08-24T06:16:52.462Z,98394.69
2022-08-24T06:18:56.551Z,98387.03
2022-08-24T06:21:06.360Z,98384.97
2022-08-24T06:23:09.414Z,98384.25
2022-08-24T06:25:36.548Z,98389.50
2022-08-24T06:27:41.569Z,98389.81
2022-08-24T06:29:44.723Z,98388.44
2022-08-24T06:32:05.199Z,98391.94
2022-08-24T06:34:08.965Z,98388.88
2022-08-24T06:36:12.246Z,98388.19
2022-08-24T06:38:15.321Z,98395.41
2022-08-24T06:40:22.656Z,98395.31
2022-08-24T06:42:26.353Z,98402.38
2022-08-24T06:44:29.413Z,98400.81
2022-08-24T06:46:41.051Z,98406.81
2022-08-24T06:48:44.596Z,98415.44
2022-08-24T06:50:48.239Z,98411.78
2022-08-24T06:52:51.352Z,98409.25
2022-08-24T06:54:54.452Z,98408.88
2022-08-24T06:56:59.176Z,98402.91
2022-08-24T06:59:03.364Z,98410.44
2022-08-24T07:01:10.948Z,98409.00
2022-08-24T07:03:14.363Z,98417.06
2022-08-24T07:05:26.049Z,98417.97
2022-08-24T07:08:01.481Z,98422.09
2022-08-24T07:10:05.531Z,98415.97
2022-08-24T07:12:10.307Z,98415.34
2022-08-24T07:14:13.386Z,98414.72
2022-08-24T07:16:18.746Z,98421.50
2022-08-24T07:18:23.415Z,98420.94
2022-08-24T07:20:26.921Z,98426.75
2022-08-24T07:22:48.439Z,98422.88
2022-08-24T07:24:51.630Z,98424.22
2022-08-24T07:26:55.482Z,98423.53
2022-08-24T07:29:05.433Z,98416.19
2022-08-24T07:31:17.078Z,98410.06
2022-08-24T07:33:29.503Z,98422.06
2022-08-24T07:35:34.422Z,98411.44
2022-08-24T07:37:41.446Z,98415.38
2022-08-24T07:39:46.236Z,98419.69
2022-08-24T07:42:11.928Z,98417.03
2022-08-24T07:44:15.511Z,98414.97
2022-08-24T07:46:18.601Z,98416.63
2022-08-24T07:48:21.782Z,98412.72
2022-08-24T07:50:26.018Z,98424.13
2022-08-24T07:52:29.090Z,98421.84
2022-08-24T07:54:32.417Z,98419.97
2022-08-24T07:56:35.665Z,98420.59
2022-08-24T07:58:39.599Z,98423.88
2022-08-24T08:00:48.568Z,98421.56
2022-08-24T08:02:51.671Z,98422.00
2022-08-24T08:04:56.600Z,98418.44
2022-08-24T08:07:02.039Z,98423.13
2022-08-24T08:09:07.831Z,98421.44
2022-08-24T08:11:11.209Z,98414.28
2022-08-24T08:13:16.904Z,98427.66
2022-08-24T08:15:20.043Z,98421.19
2022-08-24T08:17:33.016Z,98421.34
2022-08-24T08:19:36.313Z,98422.19
2022-08-24T08:22:00.621Z,98415.44
2022-08-24T08:24:16.620Z,98416.94
2022-08-24T08:26:27.711Z,98421.09
2022-08-24T08:28:43.501Z,98417.97
2022-08-24T08:30:46.883Z,98415.38
2022-08-24T08:32:51.353Z,98410.00
2022-08-24T08:34:55.985Z,98398.50
2022-08-24T08:37:01.310Z,98404.34
2022-08-24T08:39:06.512Z,98396.59
2022-08-24T08:41:32.269Z,98393.41
2022-08-24T08:43:52.664Z,98401.19
2022-08-24T08:46:09.854Z,98399.16
2022-08-24T08:49:17.757Z,98398.22
2022-08-24T08:51:50.562Z,98401.56
2022-08-24T08:54:16.103Z,98391.69
2022-08-24T08:56:24.057Z,98390.81
2022-08-24T08:58:57.263Z,98389.41
2022-08-24T09:01:12.284Z,98401.44
2022-08-24T09:03:33.969Z,98391.31
2022-08-24T09:06:22.423Z,98393.84
2022-08-24T09:08:35.157Z,98387.28
2022-08-24T09:10:51.829Z,98414.31
2022-08-24T09:13:09.167Z,98395.38
2022-08-24T09:15:21.956Z,98383.94
2022-08-24T09:17:41.796Z,98391.69
2022-08-24T09:19:57.743Z,98382.34
2022-08-24T09:22:22.955Z,98390.94
2022-08-24T09:24:59.567Z,98376.31
2022-08-24T09:27:25.708Z,98384.22
2022-08-24T09:29:42.771Z,98385.97
2022-08-24T09:31:58.826Z,98381.63
2022-08-24T09:34:10.394Z,98382.41
2022-08-24T09:36:19.822Z,98388.50
2022-08-24T09:38:34.209Z,98374.66
2022-08-24T09:40:45.588Z,98369.59
2022-08-24T09:43:16.260Z,98377.28
2022-08-24T09:45:35.260Z,98381.34
2022-08-24T09:48:15.771Z,98379.22
2022-08-24T09:50:51.768Z,98372.09
2022-08-24T09:53:38.734Z,98363.34
2022-08-24T09:55:58.969Z,98371.97
2022-08-24T09:58:17.444Z,98376.91
2022-08-24T10:00:25.817Z,98371.16
2022-08-24T10:02:38.776Z,98377.72
2022-08-24T10:04:51.120Z,98374.94
2022-08-24T10:07:00.987Z,98367.00
2022-08-24T10:09:24.491Z,98369.03
2022-08-24T10:11:35.548Z,98376.03
2022-08-24T10:13:47.067Z,98366.06
2022-08-24T10:16:03.253Z,98355.97
2022-08-24T10:18:18.651Z,98366.25
2022-08-24T10:20:24.608Z,98363.28
2022-08-24T10:22:40.373Z,98357.22
2022-08-24T10:24:56.065Z,98363.50
2022-08-24T10:27:14.232Z,98359.75
2022-08-24T10:29:29.652Z,98365.88
2022-08-24T10:31:37.618Z,98355.47
2022-08-24T10:33:55.001Z,98351.44
2022-08-24T10:36:11.835Z,98343.38
2022-08-24T10:38:51.361Z,98339.84
2022-08-24T10:41:11.548Z,98333.56
2022-08-24T10:43:48.499Z,98327.94
2022-08-24T10:46:17.421Z,98332.38
2022-08-24T10:48:39.157Z,98327.13
2022-08-24T10:50:54.647Z,98334.00
2022-08-24T10:53:15.796Z,98328.25
2022-08-24T10:55:22.388Z,98329.69
2022-08-24T10:57:32.107Z,98325.25
2022-08-24T10:59:40.548Z,98324.56
2022-08-24T11:02:02.123Z,98324.28
2022-08-24T11:04:14.506Z,98324.06
2022-08-24T11:06:18.703Z,98332.75
2022-08-24T11:08:24.413Z,98326.22
2022-08-24T11:10:30.378Z,98332.16
2022-08-24T11:12:42.597Z,98328.63
2022-08-24T11:14:48.672Z,98334.00
2022-08-24T11:16:55.857Z,98335.13
2022-08-24T11:19:02.318Z,98330.06
2022-08-24T11:21:05.536Z,98335.09
2022-08-24T11:23:10.503Z,98336.50
2022-08-24T11:25:18.409Z,98332.41
2022-08-24T11:27:30.520Z,98329.81
2022-08-24T11:30:03.467Z,98326.13
2022-08-24T11:32:06.716Z,98327.63
2022-08-24T11:34:10.813Z,98323.56
2022-08-24T11:36:17.424Z,98315.06
2022-08-24T11:38:27.348Z,98316.66
2022-08-24T11:40:32.056Z,98305.94
2022-08-24T11:42:43.335Z,98306.09
2022-08-24T11:44:50.809Z,98311.88
2022-08-24T11:46:59.039Z,98310.41
2022-08-24T11:49:08.995Z,98304.56
2022-08-24T11:51:16.708Z,98304.50
2022-08-24T11:53:28.469Z,98310.31
2022-08-24T11:55:47.427Z,98300.59
2022-08-24T11:58:02.352Z,98300.59
2022-08-24T12:00:10.953Z,98300.00
2022-08-24T12:02:20.091Z,98301.03
2022-08-24T12:04:36.608Z,98307.84
2022-08-24T12:06:49.237Z,98304.88
2022-08-24T12:08:54.903Z,98312.00
2022-08-24T12:11:03.130Z,98301.44
2022-08-24T12:13:11.248Z,98309.28
2022-08-24T12:15:18.183Z,98302.47
2022-08-24T12:17:25.806Z,98301.44
2022-08-24T12:19:30.689Z,98307.25
2022-08-24T12:21:35.491Z,98301.75
2022-08-24T12:23:41.107Z,98299.69
2022-08-24T12:26:04.960Z,98294.94
2022-08-24T12:28:08.076Z,98304.25
2022-08-24T12:30:14.780Z,98293.38
2022-08-24T12:32:20.515Z,98282.44
2022-08-24T12:34:30.794Z,98289.03
2022-08-24T12:36:39.911Z,98287.69
2022-08-24T12:38:46.673Z,98299.69
2022-08-24T12:40:54.029Z,98286.44
2022-08-24T12:43:00.976Z,98286.00
2022-08-24T12:45:07.808Z,98286.19
2022-08-24T12:47:13.503Z,98289.88
2022-08-24T12:49:23.285Z,98291.13
2022-08-24T12:51:31.979Z,98283.69
2022-08-24T12:53:55.557Z,98282.59
2022-08-24T12:56:32.964Z,98287.78
2022-08-24T12:59:08.364Z,98285.38
2022-08-24T13:01:12.834Z,98283.69
2022-08-24T13:03:26.897Z,98279.53
2022-08-24T13:05:40.874Z,98269.38
2022-08-24T13:07:47.051Z,98281.56
2022-08-24T13:10:06.947Z,98275.75
2022-08-24T13:13:01.933Z,98274.03
2022-08-24T13:15:26.256Z,98280.66
2022-08-24T13:17:41.458Z,98278.56
2022-08-24T13:19:46.032Z,98274.44
2022-08-24T13:21:53.293Z,98273.81
2022-08-24T13:24:31.050Z,98267.63
2022-08-24T13:26:35.893Z,98266.19
2022-08-24T13:28:42.108Z,98268.44
2022-08-24T13:31:05.713Z,98251.44
2022-08-24T13:33:11.380Z,98263.28
2022-08-24T13:35:34.974Z,98262.25
2022-08-24T13:37:38.442Z,98257.91
2022-08-24T13:40:08.612Z,98253.56
2022-08-24T13:42:53.617Z,98258.53
2022-08-24T13:45:26.107Z,98256.00
2022-08-24T13:47:33.782Z,98250.78
2022-08-24T13:49:52.677Z,98256.81
2022-08-24T13:52:08.563Z,98252.28
2022-08-24T13:54:22.559Z,98252.91
2022-08-24T13:56:47.613Z,98254.56
2022-08-24T13:58:56.731Z,98249.19
2022-08-24T14:01:05.161Z,98247.94
2022-08-24T14:03:27.826Z,98248.94
2022-08-24T14:05:35.877Z,98251.19
2022-08-24T14:07:50.599Z,98246.53
2022-08-24T14:10:05.663Z,98241.78
2022-08-24T14:12:25.061Z,98242.16
2022-08-24T14:14:50.988Z,98240.72
2022-08-24T14:17:22.299Z,98228.47
2022-08-24T14:19:31.908Z,98242.50
2022-08-24T14:21:39.478Z,98232.41
2022-08-24T14:23:52.573Z,98243.53
2022-08-24T14:26:28.664Z,98230.25
2022-08-24T14:28:37.912Z,98225.69
2022-08-24T14:30:46.758Z,98232.50
2022-08-24T14:33:08.020Z,98217.84
2022-08-24T14:35:27.716Z,98221.75
2022-08-24T14:37:36.961Z,98224.00
2022-08-24T14:39:46.870Z,98221.66
2022-08-24T14:41:58.757Z,98220.63
2022-08-24T14:44:11.812Z,98224.50
2022-08-24T14:46:22.450Z,98220.53
2022-08-24T14:48:35.926Z,98213.66
2022-08-24T14:50:43.232Z,98225.66
2022-08-24T14:53:14.370Z,98225.47
2022-08-24T14:55:29.745Z,98225.47
2022-08-24T14:57:54.390Z,98220.91
2022-08-24T15:00:08.222Z,98220.09
2022-08-24T15:02:38.717Z,98211.44
2022-08-24T15:04:44.539Z,98216.28
2022-08-24T15:06:49.994Z,98211.13
2022-08-24T15:08:55.691Z,98212.38
2022-08-24T15:11:03.834Z,98209.69
2022-08-24T15:13:13.165Z,98210.06
2022-08-24T15:15:23.789Z,98214.25
2022-08-24T15:17:39.545Z,98207.53
2022-08-24T15:19:48.800Z,98211.09
2022-08-24T15:21:57.652Z,98207.59
2022-08-24T15:24:10.158Z,98203.09
2022-08-24T15:26:18.947Z,98199.66
2022-08-24T15:28:25.676Z,98198.91
2022-08-24T15:30:31.177Z,98203.25
2022-08-24T15:32:44.923Z,98208.19
2022-08-24T15:34:50.592Z,98196.59
2022-08-24T15:37:01.580Z,98195.34
2022-08-24T15:39:05.885Z,98200.03
2022-08-24T15:41:12.608Z,98205.56
2022-08-24T15:43:16.168Z,98200.19
2022-08-24T15:45:20.967Z,98212.97
2022-08-24T15:47:27.846Z,98208.41
2022-08-24T15:49:35.805Z,98201.66
2022-08-24T15:51:45.595Z,98208.88
2022-08-24T15:53:48.801Z,98212.88
2022-08-24T15:55:53.421Z,98220.94
2022-08-24T15:57:57.431Z,98222.38
2022-08-24T16:00:08.685Z,98206.63
2022-08-24T16:02:26.111Z,98208.66
2022-08-24T16:04:47.208Z,98210.31
2022-08-24T16:06:50.259Z,98209.00
2022-08-24T16:09:01.858Z,98211.50
2022-08-24T16:11:20.310Z,98216.28
2022-08-24T16:13:29.059Z,98208.19
2022-08-24T16:15:32.221Z,98200.94
2022-08-24T16:17:37.848Z,98210.09
2022-08-24T16:19:40.989Z,98202.06
2022-08-24T16:21:54.611Z,98214.53
2022-08-24T16:24:02.555Z,98207.56
2022-08-24T16:26:21.394Z,98209.09
2022-08-24T16:28:36.592Z,98207.66
2022-08-24T16:30:50.029Z,98208.16
2022-08-24T16:32:54.973Z,98216.09
2022-08-24T16:35:16.707Z,98215.66
2022-08-24T16:37:21.703Z,98216.94
2022-08-24T16:39:25.498Z,98221.28
2022-08-24T16:41:28.523Z,98212.47
2022-08-24T16:43:31.612Z,98215.19
2022-08-24T16:45:36.156Z,98213.97
2022-08-24T16:47:39.368Z,98221.19
2022-08-24T16:49:42.343Z,98212.75
2022-08-24T16:51:45.731Z,98223.72
2022-08-24T16:53:50.295Z,98213.78
2022-08-24T16:55:53.668Z,98218.34
2022-08-24T16:57:56.882Z,98216.09
2022-08-24T17:00:00.074Z,98224.59
2022-08-24T17:02:03.212Z,98214.28
2022-08-24T17:04:08.893Z,98216.78
2022-08-24T17:06:13.203Z,98220.72
2022-08-24T17:08:16.189Z,98223.63
2022-08-24T17:10:23.133Z,98224.69
2022-08-24T17:12:26.996Z,98224.25
2022-08-24T17:14:29.987Z,98220.16
2022-08-24T17:16:33.095Z,98226.19
2022-08-24T17:18:36.215Z,98229.03
2022-08-24T17:20:39.400Z,98226.78
2022-08-24T17:22:42.478Z,98233.19
2022-08-24T17:24:45.657Z,98230.31
2022-08-24T17:26:52.196Z,98224.75
2022-08-24T17:28:55.534Z,98227.03
2022-08-24T17:30:58.770Z,98227.03
2022-08-24T17:33:01.788Z,98224.56
2022-08-24T17:35:05.369Z,98224.41
2022-08-24T17:37:08.800Z,98225.41
2022-08-24T17:39:12.758Z,98235.56
2022-08-24T17:41:18.490Z,98243.00
2022-08-24T17:43:24.778Z,98235.16
2022-08-24T17:45:28.007Z,98233.72
2022-08-24T17:47:31.212Z,98239.31
2022-08-24T17:49:34.561Z,98244.28
2022-08-24T17:51:37.561Z,98240.97
2022-08-24T17:53:41.473Z,98239.13
2022-08-24T17:55:44.602Z,98251.34
2022-08-24T17:57:49.002Z,98251.97
2022-08-24T17:59:54.640Z,98252.16
2022-08-24T18:01:59.230Z,98251.31
2022-08-24T18:04:02.353Z,98251.13
2022-08-24T18:06:05.662Z,98245.56
2022-08-24T18:08:09.423Z,98259.41
2022-08-24T18:10:23.819Z,98251.78
2022-08-24T18:12:27.527Z,98263.34
2022-08-24T18:14:31.401Z,98262.09
2022-08-24T18:16:35.847Z,98263.72
2022-08-24T18:18:38.868Z,98258.38
2022-08-24T18:20:42.421Z,98262.53
2022-08-24T18:22:47.230Z,98263.75
2022-08-24T18:24:53.725Z,98256.75
2022-08-24T18:26:57.468Z,98263.09
2022-08-24T18:29:05.699Z,98258.75
2022-08-24T18:31:10.418Z,98261.25
2022-08-24T18:33:15.005Z,98263.72
2022-08-24T18:35:18.239Z,98265.97
2022-08-24T18:37:21.318Z,98263.69
2022-08-24T18:39:24.468Z,98272.97
2022-08-24T18:41:32.405Z,98266.56
2022-08-24T18:43:37.911Z,98264.09
2022-08-24T18:45:41.134Z,98267.78
2022-08-24T18:47:44.367Z,98273.94
2022-08-24T18:49:57.330Z,98273.03
2022-08-24T18:52:04.232Z,98273.25
2022-08-24T18:54:10.739Z,98274.03
2022-08-24T18:56:14.039Z,98283.69
2022-08-24T18:58:17.050Z,98285.34
2022-08-24T19:00:20.404Z,98289.41
2022-08-24T19:02:33.959Z,98283.22
2022-08-24T19:04:43.795Z,98293.69
2022-08-24T19:06:48.313Z,98282.75
2022-08-24T19:08:51.415Z,98289.72
2022-08-24T19:10:54.456Z,98294.03
2022-08-24T19:12:59.794Z,98278.53
2022-08-24T19:15:03.534Z,98291.44
2022-08-24T19:17:07.400Z,98291.22
2022-08-24T19:19:11.948Z,98287.09
2022-08-24T19:21:15.147Z,98293.06
2022-08-24T19:23:22.563Z,98296.13
2022-08-24T19:25:28.147Z,98300.19
2022-08-24T19:27:31.470Z,98289.06
2022-08-24T19:31:58.708Z,98296.00
2022-08-24T19:34:03.295Z,98292.72
2022-08-24T19:36:07.091Z,98293.50
2022-08-24T19:38:10.215Z,98291.03
2022-08-24T19:40:14.738Z,98293.22
2022-08-24T19:42:18.588Z,98289.31
2022-08-24T19:44:39.467Z,98289.91
2022-08-24T19:46:42.786Z,98297.50
2022-08-24T19:48:45.992Z,98291.69
2022-08-24T19:50:49.089Z,98292.03
2022-08-24T19:52:52.187Z,98288.72
2022-08-24T19:54:56.160Z,98290.97
2022-08-24T19:57:01.055Z,98291.56
2022-08-24T19:59:08.347Z,98289.66
2022-08-24T20:01:14.311Z,98288.56
2022-08-24T20:03:18.004Z,98291.63
2022-08-24T20:05:22.466Z,98297.34
2022-08-24T20:07:25.566Z,98295.72
2022-08-24T20:09:29.183Z,98299.38
2022-08-24T20:11:32.446Z,98311.06
2022-08-24T20:13:37.277Z,98307.78
2022-08-24T20:15:40.792Z,98305.69
2022-08-24T20:17:43.923Z,98309.53
2022-08-24T20:19:47.000Z,98304.34
2022-08-24T20:21:50.099Z,98303.06
2022-08-24T20:23:53.301Z,98301.78
2022-08-24T20:25:56.490Z,98308.53
2022-08-24T20:28:25.514Z,98303.19
2022-08-24T20:30:25.618Z,98306.03
2022-08-24T20:32:29.340Z,98309.53
2022-08-24T20:34:32.452Z,98309.53
2022-08-24T20:36:37.516Z,98306.03
2022-08-24T20:38:40.948Z,98303.38
2022-08-24T20:40:44.533Z,98308.22
2022-08-24T20:42:47.692Z,98308.81
2022-08-24T20:44:50.749Z,98312.41
2022-08-24T20:46:56.020Z,98306.81
2022-08-24T20:48:59.313Z,98309.38
2022-08-24T20:51:02.601Z,98302.13
2022-08-24T20:53:06.165Z,98309.88
2022-08-24T20:55:10.627Z,98305.47
2022-08-24T20:57:17.287Z,98299.88
2022-08-24T20:59:20.676Z,98295.63
2022-08-24T21:01:24.852Z,98291.03
2022-08-24T21:03:29.419Z,98289.75
2022-08-24T21:05:32.665Z,98292.75
2022-08-24T21:07:35.978Z,98292.84
2022-08-24T21:09:39.467Z,98299.28
2022-08-24T21:11:43.188Z,98301.25
2022-08-24T21:13:46.644Z,98298.75
2022-08-24T21:15:51.723Z,98302.78
2022-08-24T21:17:55.024Z,98295.06
2022-08-24T21:19:59.534Z,98306.09
2022-08-24T21:22:03.805Z,98299.63
2022-08-24T21:24:08.070Z,98305.31
2022-08-24T21:26:14.010Z,98309.38
2022-08-24T21:28:17.657Z,98309.06
2022-08-24T21:30:23.119Z,98310.97
2022-08-24T21:32:44.028Z,98304.50
2022-08-24T21:34:47.161Z,98307.53
2022-08-24T21:36:52.600Z,98308.53
2022-08-24T21:38:57.287Z,98301.06
2022-08-24T21:41:00.670Z,98303.47
2022-08-24T21:43:09.323Z,98298.66
2022-08-24T21:45:18.399Z,98303.34
2022-08-24T21:47:21.402Z,98301.03
2022-08-24T21:49:24.690Z,98294.22
2022-08-24T21:51:28.342Z,98307.91
2022-08-24T21:53:32.871Z,98296.97
2022-08-24T21:55:37.992Z,98301.81
2022-08-24T21:57:41.447Z,98298.84
2022-08-24T21:59:44.597Z,98307.34
2022-08-24T22:01:48.020Z,98298.28
2022-08-24T22:03:51.231Z,98308.41
2022-08-24T22:05:54.397Z,98304.28
2022-08-24T22:07:57.844Z,98303.66
2022-08-24T22:10:02.312Z,98298.81
2022-08-24T22:12:05.875Z,98295.50
2022-08-24T22:14:09.004Z,98297.69
2022-08-24T22:16:12.525Z,98298.03
2022-08-24T22:18:15.846Z,98292.06
2022-08-24T22:20:23.443Z,98288.91
2022-08-24T22:22:27.695Z,98286.78
2022-08-24T22:24:30.784Z,98283.47
2022-08-24T22:26:35.740Z,98287.13
2022-08-24T22:28:41.292Z,98276.81
2022-08-24T22:30:47.941Z,98292.16
2022-08-24T22:32:52.105Z,98286.34
2022-08-24T22:34:55.707Z,98290.69
2022-08-24T22:37:00.983Z,98296.53
2022-08-24T22:39:05.531Z,98292.25
2022-08-24T22:41:09.148Z,98290.56
2022-08-24T22:43:13.668Z,98291.09
2022-08-24T22:45:16.023Z,98286.94
2022-08-24T22:47:19.734Z,98284.63
2022-08-24T22:49:25.731Z,98291.97
2022-08-24T22:51:32.204Z,98290.16
2022-08-24T22:53:35.140Z,98289.00
2022-08-24T22:55:38.149Z,98285.34
2022-08-24T22:57:41.214Z,98284.88
2022-08-24T22:59:46.561Z,98285.22
2022-08-24T23:01:51.228Z,98282.06
2022-08-24T23:03:55.428Z,98280.59
2022-08-24T23:05:58.544Z,98281.41
2022-08-24T23:08:01.844Z,98278.09
2022-08-24T23:10:06.511Z,98283.59
2022-08-24T23:12:11.799Z,98281.28
2022-08-24T23:14:15.902Z,98277.13
2022-08-24T23:16:20.384Z,98273.81
2022-08-24T23:18:43.230Z,98267.81
2022-08-24T23:20:46.227Z,98279.47
2022-08-24T23:22:49.921Z,98277.31
2022-08-24T23:24:52.934Z,98284.13
2022-08-24T23:26:56.117Z,98275.69
2022-08-24T23:28:59.335Z,98279.50
2022-08-24T23:31:06.708Z,98278.84
2022-08-24T23:33:11.162Z,98275.38
2022-08-24T23:35:14.200Z,98270.38
2022-08-24T23:37:18.549Z,98271.72
2022-08-24T23:39:22.139Z,98270.22
2022-08-24T23:41:27.665Z,98276.88
2022-08-24T23:43:30.688Z,98276.19
2022-08-24T23:45:33.734Z,98273.88
2022-08-24T23:47:36.721Z,98276.19
2022-08-24T23:49:41.733Z,98269.72
2022-08-24T23:51:44.757Z,98270.03
2022-08-24T23:53:49.054Z,98267.72
2022-08-24T23:55:52.335Z,98272.53
2022-08-24T23:57:56.156Z,98265.75
